sensor_id;sensor_type;location;lat;lon;timestamp;P1;durP1;ratioP1;P2;durP2;ratioP2
18754;SDS011;35061;47.664;9.166;2022-08-19T00:01:51;6.07;;;5.47;;
18754;SDS011;35061;47.664;9.166;2022-08-19T00:04:21;6.07;;;5.28;;
18754;SDS011;35061;47.664;9.166;2022-08-19T00:06:54;5.20;;;4.70;;
18754;SDS011;35061;47.664;9.166;2022-08-19T00:09:22;6.60;;;5.90;;
18754;SDS011;35061;47.664;9.166;2022-08-19T00:11:51;5.87;;;5.28;;
18754;SDS011;35061;47.664;9.166;2022-08-19T00:14:20;6.35;;;5.20;;
18754;SDS011;35061;47.664;9.166;2022-08-19T00:16:49;6.12;;;5.50;;
18754;SDS011;35061;47.664;9.166;2022-08-19T00:19:22;5.43;;;4.93;;
18754;SDS011;35061;47.664;9.166;2022-08-19T00:21:51;6.00;;;5.30;;
18754;SDS011;35061;47.664;9.166;2022-08-19T00:24:19;5.80;;;5.18;;
18754;SDS011;35061;47.664;9.166;2022-08-19T00:26:47;7.82;;;5.53;;
18754;SDS011;35061;47.664;9.166;2022-08-19T00:29:15;6.20;;;5.40;;
18754;SDS011;35061;47.664;9.166;2022-08-19T00:31:45;5.68;;;5.12;;
18754;SDS011;35061;47.664;9.166;2022-08-19T00:34:15;5.60;;;5.10;;
18754;SDS011;35061;47.664;9.166;2022-08-19T00:36:43;6.12;;;5.53;;
18754;SDS011;35061;47.664;9.166;2022-08-19T00:39:13;6.87;;;6.12;;
18754;SDS011;35061;47.664;9.166;2022-08-19T00:41:45;6.55;;;5.35;;
18754;SDS011;35061;47.664;9.166;2022-08-19T00:44:25;6.03;;;5.43;;
18754;SDS011;35061;47.664;9.166;2022-08-19T00:46:55;7.05;;;5.70;;
18754;SDS011;35061;47.664;9.166;2022-08-19T00:52:05;6.25;;;5.30;;
18754;SDS011;35061;47.664;9.166;2022-08-19T00:54:40;6.03;;;5.43;;
18754;SDS011;35061;47.664;9.166;2022-08-19T00:57:09;5.75;;;5.15;;
18754;SDS011;35061;47.664;9.166;2022-08-19T00:59:43;7.82;;;6.12;;
18754;SDS011;35061;47.664;9.166;2022-08-19T01:02:27;6.60;;;5.90;;
18754;SDS011;35061;47.664;9.166;2022-08-19T01:04:56;6.62;;;6.00;;
18754;SDS011;35061;47.664;9.166;2022-08-19T01:07:24;9.60;;;6.32;;
18754;SDS011;35061;47.664;9.166;2022-08-19T01:09:52;4.90;;;4.45;;
18754;SDS011;35061;47.664;9.166;2022-08-19T01:12:21;7.87;;;6.32;;
18754;SDS011;35061;47.664;9.166;2022-08-19T01:14:49;8.25;;;6.80;;
18754;SDS011;35061;47.664;9.166;2022-08-19T01:17:18;7.45;;;6.35;;
18754;SDS011;35061;47.664;9.166;2022-08-19T01:19:47;8.05;;;7.22;;
18754;SDS011;35061;47.664;9.166;2022-08-19T01:24:59;7.68;;;6.87;;
18754;SDS011;35061;47.664;9.166;2022-08-19T01:27:42;8.70;;;7.22;;
18754;SDS011;35061;47.664;9.166;2022-08-19T01:30:16;8.25;;;7.37;;
18754;SDS011;35061;47.664;9.166;2022-08-19T01:32:48;7.45;;;6.70;;
18754;SDS011;35061;47.664;9.166;2022-08-19T01:35:17;7.75;;;6.95;;
18754;SDS011;35061;47.664;9.166;2022-08-19T01:37:53;7.55;;;6.80;;
18754;SDS011;35061;47.664;9.166;2022-08-19T01:40:31;7.93;;;7.00;;
18754;SDS011;35061;47.664;9.166;2022-08-19T01:43:01;8.40;;;7.57;;
18754;SDS011;35061;47.664;9.166;2022-08-19T01:45:31;8.98;;;8.07;;
18754;SDS011;35061;47.664;9.166;2022-08-19T01:48:00;8.95;;;8.05;;
18754;SDS011;35061;47.664;9.166;2022-08-19T01:50:29;10.45;;;8.43;;
18754;SDS011;35061;47.664;9.166;2022-08-19T01:52:59;9.45;;;8.55;;
18754;SDS011;35061;47.664;9.166;2022-08-19T01:55:34;13.48;;;10.85;;
18754;SDS011;35061;47.664;9.166;2022-08-19T01:58:07;13.40;;;11.00;;
18754;SDS011;35061;47.664;9.166;2022-08-19T02:00:40;13.48;;;10.60;;
18754;SDS011;35061;47.664;9.166;2022-08-19T02:03:09;12.00;;;10.75;;
18754;SDS011;35061;47.664;9.166;2022-08-19T02:05:38;12.30;;;10.38;;
18754;SDS011;35061;47.664;9.166;2022-08-19T02:08:07;13.60;;;10.90;;
18754;SDS011;35061;47.664;9.166;2022-08-19T02:10:38;12.50;;;11.18;;
18754;SDS011;35061;47.664;9.166;2022-08-19T02:13:08;12.98;;;11.07;;
18754;SDS011;35061;47.664;9.166;2022-08-19T02:15:36;12.20;;;10.90;;
18754;SDS011;35061;47.664;9.166;2022-08-19T02:18:04;12.25;;;10.80;;
18754;SDS011;35061;47.664;9.166;2022-08-19T02:20:35;9.23;;;7.80;;
18754;SDS011;35061;47.664;9.166;2022-08-19T02:23:03;12.35;;;10.80;;
18754;SDS011;35061;47.664;9.166;2022-08-19T02:25:39;11.55;;;10.35;;
18754;SDS011;35061;47.664;9.166;2022-08-19T02:28:07;11.80;;;10.57;;
18754;SDS011;35061;47.664;9.166;2022-08-19T02:30:35;12.32;;;10.95;;
18754;SDS011;35061;47.664;9.166;2022-08-19T02:33:03;12.27;;;10.07;;
18754;SDS011;35061;47.664;9.166;2022-08-19T02:35:31;12.75;;;10.77;;
18754;SDS011;35061;47.664;9.166;2022-08-19T02:37:59;13.18;;;11.63;;
18754;SDS011;35061;47.664;9.166;2022-08-19T02:40:50;12.05;;;10.45;;
18754;SDS011;35061;47.664;9.166;2022-08-19T02:43:19;12.82;;;10.98;;
18754;SDS011;35061;47.664;9.166;2022-08-19T02:45:48;14.55;;;12.27;;
18754;SDS011;35061;47.664;9.166;2022-08-19T02:48:17;14.57;;;12.30;;
18754;SDS011;35061;47.664;9.166;2022-08-19T02:50:47;14.15;;;12.55;;
18754;SDS011;35061;47.664;9.166;2022-08-19T02:53:21;14.23;;;11.93;;
18754;SDS011;35061;47.664;9.166;2022-08-19T02:55:50;14.55;;;12.27;;
18754;SDS011;35061;47.664;9.166;2022-08-19T02:58:19;15.48;;;12.10;;
18754;SDS011;35061;47.664;9.166;2022-08-19T03:00:51;17.08;;;12.60;;
18754;SDS011;35061;47.664;9.166;2022-08-19T03:03:20;16.30;;;13.52;;
18754;SDS011;35061;47.664;9.166;2022-08-19T03:05:48;15.18;;;12.98;;
18754;SDS011;35061;47.664;9.166;2022-08-19T03:08:22;15.55;;;12.82;;
18754;SDS011;35061;47.664;9.166;2022-08-19T03:10:52;16.80;;;13.27;;
18754;SDS011;35061;47.664;9.166;2022-08-19T03:13:21;14.52;;;12.95;;
18754;SDS011;35061;47.664;9.166;2022-08-19T03:15:48;16.70;;;13.68;;
18754;SDS011;35061;47.664;9.166;2022-08-19T03:18:16;15.18;;;12.50;;
18754;SDS011;35061;47.664;9.166;2022-08-19T03:20:45;16.17;;;13.95;;
18754;SDS011;35061;47.664;9.166;2022-08-19T03:23:15;16.90;;;13.90;;
18754;SDS011;35061;47.664;9.166;2022-08-19T03:25:45;15.35;;;13.43;;
18754;SDS011;35061;47.664;9.166;2022-08-19T03:28:34;17.83;;;14.05;;
18754;SDS011;35061;47.664;9.166;2022-08-19T03:31:11;16.23;;;13.80;;
18754;SDS011;35061;47.664;9.166;2022-08-19T03:34:01;17.70;;;14.55;;
18754;SDS011;35061;47.664;9.166;2022-08-19T03:36:33;15.55;;;13.35;;
18754;SDS011;35061;47.664;9.166;2022-08-19T03:39:01;17.62;;;13.88;;
18754;SDS011;35061;47.664;9.166;2022-08-19T03:41:30;18.37;;;14.20;;
18754;SDS011;35061;47.664;9.166;2022-08-19T03:44:15;17.05;;;15.13;;
18754;SDS011;35061;47.664;9.166;2022-08-19T03:46:54;16.12;;;14.38;;
18754;SDS011;35061;47.664;9.166;2022-08-19T03:49:26;17.65;;;14.70;;
18754;SDS011;35061;47.664;9.166;2022-08-19T03:51:57;15.65;;;13.25;;
18754;SDS011;35061;47.664;9.166;2022-08-19T03:54:27;12.37;;;10.10;;
18754;SDS011;35061;47.664;9.166;2022-08-19T03:56:56;16.55;;;13.40;;
18754;SDS011;35061;47.664;9.166;2022-08-19T03:59:29;16.08;;;13.45;;
18754;SDS011;35061;47.664;9.166;2022-08-19T04:01:59;17.73;;;15.00;;
18754;SDS011;35061;47.664;9.166;2022-08-19T04:04:28;17.87;;;15.27;;
18754;SDS011;35061;47.664;9.166;2022-08-19T04:06:57;17.92;;;14.55;;
18754;SDS011;35061;47.664;9.166;2022-08-19T04:09:25;17.45;;;14.32;;
18754;SDS011;35061;47.664;9.166;2022-08-19T04:11:53;18.83;;;15.50;;
18754;SDS011;35061;47.664;9.166;2022-08-19T04:14:24;18.08;;;15.07;;
18754;SDS011;35061;47.664;9.166;2022-08-19T04:16:58;18.35;;;14.87;;
18754;SDS011;35061;47.664;9.166;2022-08-19T04:19:29;19.40;;;15.63;;
18754;SDS011;35061;47.664;9.166;2022-08-19T04:21:57;18.17;;;14.50;;
18754;SDS011;35061;47.664;9.166;2022-08-19T04:24:25;17.17;;;14.02;;
18754;SDS011;35061;47.664;9.166;2022-08-19T04:26:53;16.33;;;14.43;;
18754;SDS011;35061;47.664;9.166;2022-08-19T04:29:22;17.05;;;14.68;;
18754;SDS011;35061;47.664;9.166;2022-08-19T04:31:52;15.57;;;13.85;;
18754;SDS011;35061;47.664;9.166;2022-08-19T04:34:23;16.40;;;12.37;;
18754;SDS011;35061;47.664;9.166;2022-08-19T04:36:54;14.60;;;13.10;;
18754;SDS011;35061;47.664;9.166;2022-08-19T04:39:25;15.98;;;12.50;;
18754;SDS011;35061;47.664;9.166;2022-08-19T04:42:16;14.60;;;11.60;;
18754;SDS011;35061;47.664;9.166;2022-08-19T04:45:08;13.80;;;12.18;;
18754;SDS011;35061;47.664;9.166;2022-08-19T04:47:39;13.57;;;11.23;;
18754;SDS011;35061;47.664;9.166;2022-08-19T04:50:16;13.13;;;11.55;;
18754;SDS011;35061;47.664;9.166;2022-08-19T04:52:44;15.75;;;12.77;;
18754;SDS011;35061;47.664;9.166;2022-08-19T04:55:12;13.48;;;11.70;;
18754;SDS011;35061;47.664;9.166;2022-08-19T04:57:41;12.70;;;11.38;;
18754;SDS011;35061;47.664;9.166;2022-08-19T05:00:09;13.20;;;10.38;;
18754;SDS011;35061;47.664;9.166;2022-08-19T05:02:38;14.18;;;11.90;;
18754;SDS011;35061;47.664;9.166;2022-08-19T05:05:06;15.10;;;12.52;;
18754;SDS011;35061;47.664;9.166;2022-08-19T05:07:34;15.60;;;12.85;;
18754;SDS011;35061;47.664;9.166;2022-08-19T05:10:04;15.18;;;13.15;;
18754;SDS011;35061;47.664;9.166;2022-08-19T05:12:33;15.85;;;13.93;;
18754;SDS011;35061;47.664;9.166;2022-08-19T05:15:01;16.90;;;13.27;;
18754;SDS011;35061;47.664;9.166;2022-08-19T05:17:31;15.07;;;13.32;;
18754;SDS011;35061;47.664;9.166;2022-08-19T05:20:04;17.10;;;14.80;;
18754;SDS011;35061;47.664;9.166;2022-08-19T05:22:52;17.83;;;14.05;;
18754;SDS011;35061;47.664;9.166;2022-08-19T05:25:21;14.48;;;11.48;;
18754;SDS011;35061;47.664;9.166;2022-08-19T05:27:49;16.75;;;13.82;;
18754;SDS011;35061;47.664;9.166;2022-08-19T05:30:17;17.15;;;13.80;;
18754;SDS011;35061;47.664;9.166;2022-08-19T05:33:05;17.17;;;14.00;;
18754;SDS011;35061;47.664;9.166;2022-08-19T05:35:33;16.77;;;14.20;;
18754;SDS011;35061;47.664;9.166;2022-08-19T05:38:01;19.40;;;14.95;;
18754;SDS011;35061;47.664;9.166;2022-08-19T05:40:29;25.20;;;16.58;;
18754;SDS011;35061;47.664;9.166;2022-08-19T05:42:56;22.58;;;16.25;;
18754;SDS011;35061;47.664;9.166;2022-08-19T05:45:24;23.77;;;18.23;;
18754;SDS011;35061;47.664;9.166;2022-08-19T05:47:52;21.92;;;17.33;;
18754;SDS011;35061;47.664;9.166;2022-08-19T05:50:20;24.40;;;17.85;;
18754;SDS011;35061;47.664;9.166;2022-08-19T05:52:48;23.30;;;17.62;;
18754;SDS011;35061;47.664;9.166;2022-08-19T05:55:16;25.52;;;19.08;;
18754;SDS011;35061;47.664;9.166;2022-08-19T05:57:47;25.12;;;18.98;;
18754;SDS011;35061;47.664;9.166;2022-08-19T06:00:15;25.88;;;18.50;;
18754;SDS011;35061;47.664;9.166;2022-08-19T06:02:49;27.87;;;18.33;;
18754;SDS011;35061;47.664;9.166;2022-08-19T06:05:18;24.92;;;19.30;;
18754;SDS011;35061;47.664;9.166;2022-08-19T06:07:47;27.25;;;18.77;;
18754;SDS011;35061;47.664;9.166;2022-08-19T06:10:15;25.52;;;18.08;;
18754;SDS011;35061;47.664;9.166;2022-08-19T06:12:42;26.75;;;19.00;;
18754;SDS011;35061;47.664;9.166;2022-08-19T06:15:11;23.67;;;18.62;;
18754;SDS011;35061;47.664;9.166;2022-08-19T06:17:41;27.00;;;19.50;;
18754;SDS011;35061;47.664;9.166;2022-08-19T06:20:12;25.25;;;19.62;;
18754;SDS011;35061;47.664;9.166;2022-08-19T06:22:45;20.73;;;15.55;;
18754;SDS011;35061;47.664;9.166;2022-08-19T06:25:14;30.60;;;21.23;;
18754;SDS011;35061;47.664;9.166;2022-08-19T06:27:42;28.12;;;20.08;;
18754;SDS011;35061;47.664;9.166;2022-08-19T06:30:31;25.58;;;18.85;;
18754;SDS011;35061;47.664;9.166;2022-08-19T06:32:58;27.37;;;20.92;;
18754;SDS011;35061;47.664;9.166;2022-08-19T06:35:26;27.73;;;20.58;;
18754;SDS011;35061;47.664;9.166;2022-08-19T06:37:56;26.77;;;19.95;;
18754;SDS011;35061;47.664;9.166;2022-08-19T06:40:24;25.00;;;19.77;;
18754;SDS011;35061;47.664;9.166;2022-08-19T06:42:54;26.00;;;20.27;;
18754;SDS011;35061;47.664;9.166;2022-08-19T06:45:25;25.73;;;19.52;;
18754;SDS011;35061;47.664;9.166;2022-08-19T06:48:01;28.87;;;19.23;;
18754;SDS011;35061;47.664;9.166;2022-08-19T06:50:29;27.05;;;19.35;;
18754;SDS011;35061;47.664;9.166;2022-08-19T06:52:56;24.83;;;18.87;;
18754;SDS011;35061;47.664;9.166;2022-08-19T06:55:29;25.17;;;20.40;;
18754;SDS011;35061;47.664;9.166;2022-08-19T06:58:01;25.02;;;18.85;;
18754;SDS011;35061;47.664;9.166;2022-08-19T07:00:30;24.58;;;19.50;;
18754;SDS011;35061;47.664;9.166;2022-08-19T07:02:59;24.15;;;19.87;;
18754;SDS011;35061;47.664;9.166;2022-08-19T07:05:37;26.73;;;19.65;;
18754;SDS011;35061;47.664;9.166;2022-08-19T07:08:10;24.40;;;20.08;;
18754;SDS011;35061;47.664;9.166;2022-08-19T07:10:42;24.17;;;19.30;;
18754;SDS011;35061;47.664;9.166;2022-08-19T07:13:11;25.42;;;19.73;;
18754;SDS011;35061;47.664;9.166;2022-08-19T07:15:39;26.23;;;20.48;;
18754;SDS011;35061;47.664;9.166;2022-08-19T07:18:07;23.62;;;18.42;;
18754;SDS011;35061;47.664;9.166;2022-08-19T07:20:37;23.77;;;19.37;;
18754;SDS011;35061;47.664;9.166;2022-08-19T07:23:07;24.35;;;18.95;;
18754;SDS011;35061;47.664;9.166;2022-08-19T07:25:41;24.05;;;18.85;;
18754;SDS011;35061;47.664;9.166;2022-08-19T07:28:18;21.27;;;17.75;;
18754;SDS011;35061;47.664;9.166;2022-08-19T07:30:50;19.40;;;16.65;;
18754;SDS011;35061;47.664;9.166;2022-08-19T07:33:18;20.35;;;17.08;;
18754;SDS011;35061;47.664;9.166;2022-08-19T07:35:46;20.08;;;16.87;;
18754;SDS011;35061;47.664;9.166;2022-08-19T07:38:15;22.05;;;16.83;;
18754;SDS011;35061;47.664;9.166;2022-08-19T07:40:43;20.52;;;17.05;;
18754;SDS011;35061;47.664;9.166;2022-08-19T21:17:42;14.25;;;12.75;;
18754;SDS011;35061;47.664;9.166;2022-08-19T21:20:10;14.20;;;12.23;;
18754;SDS011;35061;47.664;9.166;2022-08-19T21:22:38;14.75;;;12.10;;
18754;SDS011;35061;47.664;9.166;2022-08-19T21:25:06;13.90;;;12.43;;
18754;SDS011;35061;47.664;9.166;2022-08-19T21:27:34;13.43;;;11.43;;
18754;SDS011;35061;47.664;9.166;2022-08-19T21:30:02;12.82;;;11.52;;
18754;SDS011;35061;47.664;9.166;2022-08-19T21:32:31;14.35;;;12.60;;
18754;SDS011;35061;47.664;9.166;2022-08-19T21:34:59;14.07;;;12.15;;
18754;SDS011;35061;47.664;9.166;2022-08-19T21:37:28;12.68;;;11.48;;
18754;SDS011;35061;47.664;9.166;2022-08-19T21:39:56;12.75;;;11.45;;
18754;SDS011;35061;47.664;9.166;2022-08-19T21:42:24;12.52;;;11.23;;
18754;SDS011;35061;47.664;9.166;2022-08-19T21:44:51;12.90;;;11.60;;
18754;SDS011;35061;47.664;9.166;2022-08-19T21:47:20;12.32;;;11.05;;
18754;SDS011;35061;47.664;9.166;2022-08-19T21:49:47;13.00;;;11.63;;
18754;SDS011;35061;47.664;9.166;2022-08-19T21:52:22;12.10;;;10.65;;
18754;SDS011;35061;47.664;9.166;2022-08-19T21:54:51;12.25;;;11.05;;
18754;SDS011;35061;47.664;9.166;2022-08-19T21:57:19;12.63;;;10.63;;
18754;SDS011;35061;47.664;9.166;2022-08-19T21:59:47;12.02;;;10.88;;
18754;SDS011;35061;47.664;9.166;2022-08-19T22:02:14;11.75;;;10.50;;
18754;SDS011;35061;47.664;9.166;2022-08-19T22:04:47;11.15;;;10.00;;
18754;SDS011;35061;47.664;9.166;2022-08-19T22:07:16;12.37;;;10.25;;
18754;SDS011;35061;47.664;9.166;2022-08-19T22:09:45;11.98;;;10.13;;
18754;SDS011;35061;47.664;9.166;2022-08-19T22:12:48;11.35;;;10.15;;
18754;SDS011;35061;47.664;9.166;2022-08-19T22:15:16;11.60;;;10.25;;
18754;SDS011;35061;47.664;9.166;2022-08-19T22:17:47;12.32;;;11.12;;
18754;SDS011;35061;47.664;9.166;2022-08-19T22:20:18;10.93;;;9.80;;
18754;SDS011;35061;47.664;9.166;2022-08-19T22:22:50;12.48;;;10.48;;
18754;SDS011;35061;47.664;9.166;2022-08-19T22:25:24;12.45;;;10.93;;
18754;SDS011;35061;47.664;9.166;2022-08-19T22:27:57;12.27;;;10.43;;
18754;SDS011;35061;47.664;9.166;2022-08-19T22:30:27;11.60;;;10.50;;
18754;SDS011;35061;47.664;9.166;2022-08-19T22:33:00;11.93;;;10.75;;
18754;SDS011;35061;47.664;9.166;2022-08-19T22:35:32;11.43;;;10.32;;
18754;SDS011;35061;47.664;9.166;2022-08-19T22:38:02;11.63;;;10.52;;
18754;SDS011;35061;47.664;9.166;2022-08-19T22:40:33;12.05;;;10.85;;
18754;SDS011;35061;47.664;9.166;2022-08-19T22:43:04;10.27;;;9.27;;
18754;SDS011;35061;47.664;9.166;2022-08-19T22:45:34;12.80;;;11.50;;
18754;SDS011;35061;47.664;9.166;2022-08-19T22:48:03;11.15;;;10.15;;
18754;SDS011;35061;47.664;9.166;2022-08-19T22:50:36;11.93;;;10.75;;
18754;SDS011;35061;47.664;9.166;2022-08-19T22:53:06;11.98;;;10.73;;
18754;SDS011;35061;47.664;9.166;2022-08-19T22:55:36;11.98;;;10.77;;
18754;SDS011;35061;47.664;9.166;2022-08-19T22:58:05;12.63;;;11.32;;
18754;SDS011;35061;47.664;9.166;2022-08-19T23:00:33;11.25;;;10.15;;
18754;SDS011;35061;47.664;9.166;2022-08-19T23:03:01;12.63;;;11.32;;
18754;SDS011;35061;47.664;9.166;2022-08-19T23:05:28;10.82;;;9.82;;
18754;SDS011;35061;47.664;9.166;2022-08-19T23:07:56;12.27;;;11.07;;
18754;SDS011;35061;47.664;9.166;2022-08-19T23:10:25;11.50;;;10.30;;
18754;SDS011;35061;47.664;9.166;2022-08-19T23:12:56;11.43;;;10.32;;
18754;SDS011;35061;47.664;9.166;2022-08-19T23:15:27;14.55;;;9.85;;
18754;SDS011;35061;47.664;9.166;2022-08-19T23:17:57;12.43;;;11.12;;
18754;SDS011;35061;47.664;9.166;2022-08-19T23:20:29;10.98;;;9.88;;
18754;SDS011;35061;47.664;9.166;2022-08-19T23:23:00;12.73;;;11.45;;
18754;SDS011;35061;47.664;9.166;2022-08-19T23:25:30;11.73;;;10.52;;
18754;SDS011;35061;47.664;9.166;2022-08-19T23:27:59;10.75;;;9.70;;
18754;SDS011;35061;47.664;9.166;2022-08-19T23:30:47;11.23;;;10.13;;
18754;SDS011;35061;47.664;9.166;2022-08-19T23:33:19;12.60;;;11.30;;
18754;SDS011;35061;47.664;9.166;2022-08-19T23:36:12;12.80;;;10.98;;
18754;SDS011;35061;47.664;9.166;2022-08-19T23:38:42;11.85;;;10.75;;
18754;SDS011;35061;47.664;9.166;2022-08-19T23:41:12;12.55;;;11.25;;
18754;SDS011;35061;47.664;9.166;2022-08-19T23:43:42;11.52;;;10.32;;
18754;SDS011;35061;47.664;9.166;2022-08-19T23:46:12;12.00;;;10.80;;
18754;SDS011;35061;47.664;9.166;2022-08-19T23:48:53;11.43;;;10.23;;
18754;SDS011;35061;47.664;9.166;2022-08-19T23:51:21;13.23;;;11.20;;
18754;SDS011;35061;47.664;9.166;2022-08-19T23:53:49;11.98;;;10.27;;
18754;SDS011;35061;47.664;9.166;2022-08-19T23:56:17;11.65;;;10.45;;
18754;SDS011;35061;47.664;9.166;2022-08-19T23:58:45;12.93;;;11.23;;
